createdAt,value
2023-05-15T00:00:11.014Z,12.86
2023-05-15T00:01:10.944Z,12.86
2023-05-15T00:02:10.948Z,12.94
2023-05-15T00:03:10.953Z,12.79
2023-05-15T00:04:10.941Z,12.94
2023-05-15T00:05:11.016Z,12.87
2023-05-15T00:06:10.900Z,12.83
2023-05-15T00:07:10.883Z,12.94
2023-05-15T00:08:10.883Z,12.83
2023-05-15T00:09:10.854Z,12.80
2023-05-15T00:10:10.934Z,12.70
2023-05-15T00:11:10.846Z,12.72
2023-05-15T00:12:10.816Z,12.80
2023-05-15T00:13:10.810Z,12.70
2023-05-15T00:14:10.791Z,12.70
2023-05-15T00:15:10.872Z,12.68
2023-05-15T00:16:10.814Z,12.70
2023-05-15T00:17:10.775Z,12.65
2023-05-15T00:18:10.795Z,12.68
2023-05-15T00:19:10.818Z,12.72
2023-05-15T00:20:10.799Z,12.64
2023-05-15T00:21:10.800Z,12.61
2023-05-15T00:22:10.761Z,12.58
2023-05-15T00:23:10.701Z,12.60
2023-05-15T00:24:10.696Z,12.58
2023-05-15T00:25:10.775Z,12.60
2023-05-15T00:26:10.738Z,12.60
2023-05-15T00:27:10.676Z,12.68
2023-05-15T00:28:10.657Z,12.62
2023-05-15T00:29:10.646Z,12.54
2023-05-15T00:30:10.637Z,12.60
2023-05-15T00:31:10.700Z,12.50
2023-05-15T00:32:10.627Z,12.47
2023-05-15T00:33:10.629Z,12.47
2023-05-15T00:34:10.603Z,12.45
2023-05-15T00:35:10.651Z,12.47
2023-05-15T00:36:10.662Z,12.50
2023-05-15T00:37:10.570Z,12.50
2023-05-15T00:38:10.561Z,12.47
2023-05-15T00:39:10.571Z,12.47
2023-05-15T00:40:10.617Z,12.53
2023-05-15T00:41:10.585Z,12.47
2023-05-15T00:42:10.530Z,12.54
2023-05-15T00:43:10.496Z,12.47
2023-05-15T00:44:10.490Z,12.49
2023-05-15T00:45:10.508Z,12.54
2023-05-15T00:46:10.528Z,12.49
2023-05-15T00:47:10.577Z,12.42
2023-05-15T00:48:10.452Z,12.47
2023-05-15T00:49:10.420Z,12.47
2023-05-15T00:50:10.438Z,12.45
2023-05-15T00:51:10.515Z,12.45
2023-05-15T00:52:10.403Z,12.45
2023-05-15T00:53:10.481Z,12.39
2023-05-15T00:54:10.517Z,12.36
2023-05-15T00:55:10.391Z,12.40
2023-05-15T00:56:10.357Z,12.36
2023-05-15T00:57:10.391Z,12.35
2023-05-15T00:58:10.413Z,12.32
2023-05-15T00:59:10.336Z,12.31
2023-05-15T01:00:10.508Z,12.32
2023-05-15T01:01:10.337Z,12.27
2023-05-15T01:02:10.342Z,12.32
2023-05-15T01:03:10.431Z,12.29
2023-05-15T01:04:10.337Z,12.21
2023-05-15T01:05:10.402Z,12.27
2023-05-15T01:06:10.256Z,12.21
2023-05-15T01:07:10.248Z,12.28
2023-05-15T01:08:10.259Z,12.20
2023-05-15T01:09:10.212Z,12.21
2023-05-15T01:10:10.293Z,12.24
2023-05-15T01:11:10.228Z,12.25
2023-05-15T01:12:10.189Z,12.17
2023-05-15T01:13:10.236Z,12.20
2023-05-15T01:14:10.178Z,12.21
2023-05-15T01:15:10.153Z,12.21
2023-05-15T01:16:10.242Z,12.20
2023-05-15T01:17:10.152Z,12.18
2023-05-15T01:18:10.287Z,12.15
2023-05-15T01:19:10.181Z,12.20
2023-05-15T01:20:10.099Z,12.13
2023-05-15T01:21:10.390Z,12.20
2023-05-15T01:22:10.127Z,12.07
2023-05-15T01:23:10.096Z,12.15
2023-05-15T01:24:10.119Z,12.10
2023-05-15T01:25:10.059Z,12.17
2023-05-15T01:26:10.150Z,12.07
2023-05-15T01:27:10.066Z,12.04
2023-05-15T01:28:10.016Z,12.06
2023-05-15T01:29:10.062Z,12.10
2023-05-15T01:30:10.045Z,12.07
2023-05-15T01:31:10.079Z,12.06
2023-05-15T01:32:10.114Z,12.04
2023-05-15T01:33:10.074Z,12.04
2023-05-15T01:34:09.963Z,12.03
2023-05-15T01:35:10.027Z,12.06
2023-05-15T01:36:09.998Z,12.06
2023-05-15T01:37:09.929Z,12.04
2023-05-15T01:38:09.928Z,11.99
2023-05-15T01:39:09.913Z,12.06
2023-05-15T01:40:09.900Z,12.04
2023-05-15T01:41:09.967Z,12.03
2023-05-15T01:42:09.900Z,12.03
2023-05-15T01:43:09.863Z,11.91
2023-05-15T01:44:09.862Z,12.00
2023-05-15T01:45:09.840Z,12.02
2023-05-15T01:46:09.925Z,11.91
2023-05-15T01:47:09.820Z,11.95
2023-05-15T01:48:09.800Z,11.97
2023-05-15T01:49:09.816Z,11.95
2023-05-15T01:50:09.793Z,11.81
2023-05-15T01:51:09.835Z,11.94
2023-05-15T01:52:09.776Z,11.95
2023-05-15T01:53:09.808Z,11.94
2023-05-15T01:54:09.750Z,11.88
2023-05-15T01:55:09.811Z,11.91
2023-05-15T01:56:09.881Z,11.87
2023-05-15T01:57:09.712Z,11.88
2023-05-15T01:58:09.718Z,11.94
2023-05-15T01:59:09.711Z,11.88
2023-05-15T02:00:09.741Z,11.83
2023-05-15T02:01:09.707Z,11.83
2023-05-15T02:02:09.823Z,11.86
2023-05-15T02:03:09.862Z,11.80
2023-05-15T02:04:09.669Z,11.80
2023-05-15T02:05:09.734Z,11.70
2023-05-15T02:06:09.622Z,11.66
2023-05-15T02:07:09.709Z,11.52
2023-05-15T02:08:09.596Z,11.59
2023-05-15T02:09:09.594Z,11.37
2023-05-15T02:10:09.603Z,11.40
2023-05-15T02:11:09.583Z,11.40
2023-05-15T02:12:09.627Z,11.40
2023-05-15T02:13:09.548Z,11.32
2023-05-15T02:14:09.545Z,11.32
2023-05-15T02:15:09.528Z,11.41
2023-05-15T02:16:09.573Z,11.44
2023-05-15T02:17:09.610Z,11.41
2023-05-15T02:18:09.499Z,11.41
2023-05-15T02:19:09.594Z,11.41
2023-05-15T02:20:09.454Z,11.41
2023-05-15T02:21:09.519Z,11.47
2023-05-15T02:22:09.499Z,11.51
2023-05-15T02:23:09.518Z,11.37
2023-05-15T02:24:09.484Z,11.45
2023-05-15T02:25:09.455Z,11.44
2023-05-15T02:26:09.464Z,11.44
2023-05-15T02:27:10.294Z,11.47
2023-05-15T02:28:09.467Z,11.41
2023-05-15T02:29:09.438Z,11.41
2023-05-15T02:30:09.442Z,11.51
2023-05-15T02:31:09.403Z,11.36
2023-05-15T02:32:09.591Z,11.44
2023-05-15T02:33:09.470Z,11.36
2023-05-15T02:34:09.317Z,11.48
2023-05-15T02:35:09.328Z,11.41
2023-05-15T02:36:09.339Z,11.47
2023-05-15T02:37:09.292Z,11.43
2023-05-15T02:38:09.335Z,11.47
2023-05-15T02:39:09.347Z,11.37
2023-05-15T02:40:09.340Z,11.41
2023-05-15T02:41:09.244Z,11.41
2023-05-15T02:42:09.247Z,11.41
2023-05-15T02:43:09.224Z,11.43
2023-05-15T02:44:09.268Z,11.40
2023-05-15T02:45:09.270Z,11.37
2023-05-15T02:46:09.266Z,11.41
2023-05-15T02:47:09.195Z,11.30
2023-05-15T02:48:09.259Z,11.32
2023-05-15T02:49:09.174Z,11.29
2023-05-15T02:50:09.214Z,11.19
2023-05-15T02:51:09.151Z,11.26
2023-05-15T02:52:09.134Z,11.19
2023-05-15T02:53:09.133Z,11.22
2023-05-15T02:54:09.118Z,11.14
2023-05-15T02:55:09.202Z,11.11
2023-05-15T02:56:09.098Z,11.15
2023-05-15T02:57:09.087Z,11.05
2023-05-15T02:58:09.092Z,11.04
2023-05-15T02:59:09.065Z,10.96
2023-05-15T03:00:09.112Z,11.02
2023-05-15T03:01:09.069Z,10.81
2023-05-15T03:02:09.104Z,10.89
2023-05-15T03:03:09.027Z,10.87
2023-05-15T03:04:09.092Z,10.84
2023-05-15T03:05:08.991Z,10.81
2023-05-15T03:06:09.045Z,10.75
2023-05-15T03:07:08.975Z,10.75
2023-05-15T03:08:09.019Z,10.75
2023-05-15T03:09:08.973Z,10.74
2023-05-15T03:10:08.946Z,10.67
2023-05-15T03:11:09.006Z,10.74
2023-05-15T03:12:08.925Z,10.67
2023-05-15T03:13:08.925Z,10.74
2023-05-15T03:14:08.906Z,10.72
2023-05-15T03:15:08.901Z,10.67
2023-05-15T03:16:08.948Z,10.71
2023-05-15T03:17:08.968Z,10.82
2023-05-15T03:18:08.932Z,10.81
2023-05-15T03:19:08.916Z,10.86
2023-05-15T03:20:08.836Z,10.86
2023-05-15T03:21:08.879Z,10.86
2023-05-15T03:22:08.825Z,10.74
2023-05-15T03:23:08.805Z,10.76
2023-05-15T03:24:08.801Z,10.81
2023-05-15T03:25:08.807Z,10.79
2023-05-15T03:26:08.846Z,10.86
2023-05-15T03:27:08.766Z,10.86
2023-05-15T03:28:08.765Z,10.81
2023-05-15T03:29:08.738Z,10.84
2023-05-15T03:30:08.745Z,10.78
2023-05-15T03:31:08.835Z,10.79
2023-05-15T03:32:08.706Z,10.84
2023-05-15T03:33:08.706Z,10.78
2023-05-15T03:34:08.727Z,10.81
2023-05-15T03:35:08.677Z,10.81
2023-05-15T03:36:08.695Z,10.84
2023-05-15T03:37:08.716Z,10.90
2023-05-15T03:38:08.690Z,10.86
2023-05-15T03:39:08.726Z,10.86
2023-05-15T03:40:08.621Z,10.81
2023-05-15T03:41:08.654Z,10.78
2023-05-15T03:42:08.697Z,10.86
2023-05-15T03:43:08.604Z,10.89
2023-05-15T03:44:08.592Z,10.64
2023-05-15T03:45:08.587Z,10.72
2023-05-15T03:46:08.622Z,10.71
2023-05-15T03:47:08.646Z,10.72
2023-05-15T03:48:08.592Z,10.72
2023-05-15T03:49:08.529Z,10.61
2023-05-15T03:50:08.544Z,10.75
2023-05-15T03:51:08.521Z,10.61
2023-05-15T03:52:08.569Z,10.69
2023-05-15T03:53:08.491Z,10.74
2023-05-15T03:54:08.490Z,10.72
2023-05-15T03:55:08.477Z,10.68
2023-05-15T03:56:08.487Z,10.67
2023-05-15T03:57:08.519Z,10.59
2023-05-15T03:58:08.431Z,10.60
2023-05-15T03:59:08.428Z,10.61
2023-05-15T04:00:08.423Z,10.49
2023-05-15T04:01:08.421Z,10.53
2023-05-15T04:02:08.540Z,10.49
2023-05-15T04:03:08.563Z,10.51
2023-05-15T04:04:08.401Z,10.48
2023-05-15T04:05:08.408Z,10.49
2023-05-15T04:06:08.374Z,10.56
2023-05-15T04:07:08.429Z,10.59
2023-05-15T04:08:08.362Z,10.61
2023-05-15T04:09:08.759Z,10.57
2023-05-15T04:10:08.381Z,10.61
2023-05-15T04:11:08.367Z,10.69
2023-05-15T04:12:08.301Z,10.71
2023-05-15T04:13:08.396Z,10.75
2023-05-15T04:14:08.278Z,10.72
2023-05-15T04:15:08.277Z,10.79
2023-05-15T04:16:08.313Z,10.84
2023-05-15T04:17:08.438Z,10.89
2023-05-15T04:18:08.316Z,10.90
2023-05-15T04:19:08.254Z,10.89
2023-05-15T04:20:08.270Z,10.97
2023-05-15T04:21:08.198Z,11.05
2023-05-15T04:22:08.202Z,11.04
2023-05-15T04:23:08.194Z,11.02
2023-05-15T04:24:08.160Z,11.10
2023-05-15T04:25:08.208Z,11.17
2023-05-15T04:26:08.139Z,11.18
2023-05-15T04:27:08.200Z,11.15
2023-05-15T04:28:08.180Z,11.23
2023-05-15T04:29:08.131Z,11.27
2023-05-15T04:30:08.176Z,11.33
2023-05-15T04:31:08.099Z,11.33
2023-05-15T04:32:08.172Z,11.44
2023-05-15T04:33:08.345Z,11.41
2023-05-15T04:34:08.061Z,11.41
2023-05-15T04:35:08.135Z,11.44
2023-05-15T04:36:08.045Z,11.54
2023-05-15T04:37:08.034Z,11.51
2023-05-15T04:38:08.110Z,11.62
2023-05-15T04:39:08.005Z,11.65
2023-05-15T04:40:08.112Z,11.65
2023-05-15T04:41:08.079Z,11.68
2023-05-15T04:42:07.993Z,11.70
2023-05-15T04:43:08.035Z,11.75
2023-05-15T04:44:07.963Z,11.77
2023-05-15T04:45:08.044Z,11.81
2023-05-15T04:46:08.055Z,11.83
2023-05-15T04:47:07.971Z,11.90
2023-05-15T04:48:08.006Z,11.88
2023-05-15T04:49:07.909Z,11.94
2023-05-15T04:50:07.897Z,11.86
2023-05-15T04:51:07.958Z,11.97
2023-05-15T04:52:07.865Z,11.94
2023-05-15T04:53:07.868Z,12.00
2023-05-15T04:54:07.930Z,12.13
2023-05-15T04:55:07.840Z,12.03
2023-05-15T04:56:07.834Z,12.15
2023-05-15T04:57:07.814Z,12.17
2023-05-15T04:58:07.824Z,12.22
2023-05-15T04:59:07.857Z,12.29
2023-05-15T05:00:07.793Z,12.35
2023-05-15T05:01:07.869Z,12.37
2023-05-15T05:02:07.803Z,12.39
2023-05-15T05:03:07.884Z,12.46
2023-05-15T05:04:07.881Z,12.49
2023-05-15T05:05:07.772Z,12.45
2023-05-15T05:06:07.739Z,12.62
2023-05-15T05:07:07.718Z,12.68
2023-05-15T05:08:07.714Z,12.70
2023-05-15T05:09:07.773Z,12.82
2023-05-15T05:10:07.702Z,12.79
2023-05-15T05:11:07.733Z,12.86
2023-05-15T05:12:07.660Z,12.79
2023-05-15T05:13:07.711Z,12.83
2023-05-15T05:14:07.693Z,12.82
2023-05-15T05:15:07.638Z,12.90
2023-05-15T05:16:07.708Z,12.90
2023-05-15T05:17:07.682Z,13.01
2023-05-15T05:18:07.696Z,13.05
2023-05-15T05:19:07.768Z,13.04
2023-05-15T05:20:08.427Z,13.12
2023-05-15T05:21:07.577Z,13.11
2023-05-15T05:22:07.686Z,13.16
2023-05-15T05:23:07.562Z,13.18
2023-05-15T05:24:07.556Z,13.20
2023-05-15T05:25:07.539Z,13.25
2023-05-15T05:26:07.691Z,13.23
2023-05-15T05:27:07.520Z,13.30
2023-05-15T05:28:07.511Z,13.23
2023-05-15T05:29:07.485Z,13.19
2023-05-15T05:30:07.485Z,13.22
2023-05-15T05:31:07.539Z,13.19
2023-05-15T05:32:07.500Z,13.13
2023-05-15T05:33:07.527Z,13.16
2023-05-15T05:34:07.456Z,13.01
2023-05-15T05:35:07.417Z,13.05
2023-05-15T05:36:07.475Z,13.00
2023-05-15T05:37:07.460Z,12.98
2023-05-15T05:38:07.392Z,12.98
2023-05-15T05:39:07.381Z,12.95
2023-05-15T05:40:07.384Z,12.86
2023-05-15T05:41:07.368Z,12.91
2023-05-15T05:42:07.429Z,12.93
2023-05-15T05:43:07.338Z,12.98
2023-05-15T05:44:07.324Z,12.97
2023-05-15T05:45:07.319Z,13.03
2023-05-15T05:46:07.318Z,13.05
2023-05-15T05:47:07.504Z,13.03
2023-05-15T05:48:07.441Z,13.12
2023-05-15T05:49:07.282Z,13.18
2023-05-15T05:50:07.301Z,13.23
2023-05-15T05:51:07.286Z,13.13
2023-05-15T05:52:07.341Z,13.23
2023-05-15T05:53:07.269Z,13.33
2023-05-15T05:54:07.222Z,13.31
2023-05-15T05:55:07.536Z,13.37
2023-05-15T05:56:07.264Z,13.39
2023-05-15T05:57:07.258Z,13.46
2023-05-15T05:58:14.734Z,13.53
2023-05-15T05:59:08.207Z,13.60
2023-05-15T06:00:07.215Z,13.71
2023-05-15T06:01:07.149Z,13.71
2023-05-15T06:02:07.252Z,13.70
2023-05-15T06:03:07.201Z,13.65
2023-05-15T06:04:07.253Z,13.72
2023-05-15T06:05:07.113Z,13.71
2023-05-15T06:06:07.102Z,13.85
2023-05-15T06:07:07.087Z,13.72
2023-05-15T06:08:07.142Z,13.83
2023-05-15T06:09:07.082Z,13.89
2023-05-15T06:10:07.065Z,13.83
2023-05-15T06:11:07.048Z,13.85
2023-05-15T06:12:07.142Z,13.86
2023-05-15T06:13:07.061Z,14.00
2023-05-15T06:14:07.082Z,13.95
2023-05-15T06:15:07.001Z,13.86
2023-05-15T06:16:06.989Z,13.96
2023-05-15T06:17:07.088Z,14.14
2023-05-15T06:18:07.002Z,14.04
2023-05-15T06:19:06.991Z,14.20
2023-05-15T06:20:06.957Z,14.25
2023-05-15T06:21:06.929Z,14.29
2023-05-15T06:22:06.917Z,14.43
2023-05-15T06:23:06.962Z,14.51
2023-05-15T06:24:06.921Z,14.60
2023-05-15T06:25:06.894Z,14.66
2023-05-15T06:26:06.873Z,14.69
2023-05-15T06:27:06.858Z,14.77
2023-05-15T06:28:06.924Z,14.81
2023-05-15T06:29:06.880Z,14.92
2023-05-15T06:30:06.905Z,14.97
2023-05-15T06:31:06.872Z,15.00
2023-05-15T06:32:06.854Z,15.14
2023-05-15T06:33:07.105Z,15.03
2023-05-15T06:34:06.864Z,15.19
2023-05-15T06:35:06.791Z,15.09
2023-05-15T06:36:06.814Z,15.10
2023-05-15T06:37:06.762Z,15.02
2023-05-15T06:38:06.808Z,15.14
2023-05-15T06:39:06.748Z,14.91
2023-05-15T06:40:06.733Z,14.97
2023-05-15T06:41:06.748Z,14.79
2023-05-15T06:42:06.770Z,14.60
2023-05-15T06:43:06.780Z,14.66
2023-05-15T06:44:06.699Z,14.63
2023-05-15T06:45:06.693Z,14.45
2023-05-15T06:46:06.818Z,14.53
2023-05-15T06:47:06.727Z,14.50
2023-05-15T06:48:06.826Z,14.55
2023-05-15T06:49:06.706Z,14.50
2023-05-15T06:50:07.414Z,14.48
2023-05-15T06:51:06.643Z,14.44
2023-05-15T06:52:06.610Z,14.47
2023-05-15T06:53:06.627Z,14.33
2023-05-15T06:54:06.648Z,14.25
2023-05-15T06:55:06.566Z,14.17
2023-05-15T06:56:06.585Z,14.17
2023-05-15T06:57:06.546Z,14.14
2023-05-15T06:58:06.534Z,13.99
2023-05-15T06:59:06.580Z,14.15
2023-05-15T07:00:06.514Z,14.14
2023-05-15T07:01:06.564Z,14.12
2023-05-15T07:02:06.749Z,14.18
2023-05-15T07:03:06.586Z,14.12
2023-05-15T07:04:06.630Z,14.12
2023-05-15T07:05:06.579Z,14.11
2023-05-15T07:06:06.466Z,14.04
2023-05-15T07:07:06.508Z,13.99
2023-05-15T07:08:06.464Z,13.99
2023-05-15T07:09:06.432Z,14.03
2023-05-15T07:10:06.467Z,14.12
2023-05-15T07:11:06.432Z,14.00
2023-05-15T07:12:06.465Z,14.15
2023-05-15T07:13:06.386Z,14.10
2023-05-15T07:14:06.360Z,14.10
2023-05-15T07:15:06.465Z,14.17
2023-05-15T07:16:06.331Z,14.04
2023-05-15T07:17:06.380Z,14.05
2023-05-15T07:18:06.606Z,13.90
2023-05-15T07:19:06.341Z,13.95
2023-05-15T07:20:06.438Z,13.96
2023-05-15T07:21:06.294Z,13.89
2023-05-15T07:22:06.301Z,13.87
2023-05-15T07:23:06.298Z,13.89
2023-05-15T07:24:06.353Z,13.92
2023-05-15T07:25:06.304Z,13.90
2023-05-15T07:26:08.670Z,14.00
2023-05-15T07:27:06.232Z,13.93
2023-05-15T07:28:06.240Z,14.00
2023-05-15T07:29:06.223Z,13.92
2023-05-15T07:30:06.279Z,13.92
2023-05-15T07:31:06.287Z,14.05
2023-05-15T07:32:06.251Z,13.95
2023-05-15T07:33:06.240Z,13.89
2023-05-15T07:34:06.359Z,13.90
2023-05-15T07:35:06.163Z,13.85
2023-05-15T07:36:06.145Z,13.87
2023-05-15T07:37:06.120Z,13.75
2023-05-15T07:38:06.160Z,13.72
2023-05-15T07:39:06.148Z,13.75
2023-05-15T07:40:06.097Z,13.75
2023-05-15T07:41:06.083Z,13.72
2023-05-15T07:42:06.422Z,13.89
2023-05-15T07:43:06.054Z,13.83
2023-05-15T07:44:06.071Z,13.87
2023-05-15T07:45:06.032Z,13.86
2023-05-15T07:46:06.048Z,13.87
2023-05-15T07:47:06.105Z,13.83
2023-05-15T07:48:06.082Z,13.83
2023-05-15T07:49:05.991Z,13.92
2023-05-15T07:50:06.025Z,13.97
2023-05-15T07:51:06.023Z,13.99
2023-05-15T07:52:05.978Z,13.90
2023-05-15T07:53:05.944Z,14.00
2023-05-15T07:54:05.959Z,14.12
2023-05-15T07:55:05.944Z,14.22
2023-05-15T07:56:05.977Z,14.35
2023-05-15T07:57:05.968Z,14.44
2023-05-15T07:58:05.973Z,14.51
2023-05-15T07:59:05.930Z,14.50
2023-05-15T08:00:05.906Z,14.59
2023-05-15T08:01:05.934Z,14.60
2023-05-15T08:02:05.973Z,14.77
2023-05-15T08:03:05.899Z,14.70
2023-05-15T08:04:06.020Z,14.69
2023-05-15T08:05:05.835Z,14.73
2023-05-15T08:06:05.960Z,14.63
2023-05-15T08:07:05.813Z,14.59
2023-05-15T08:08:05.794Z,14.58
2023-05-15T08:09:05.849Z,14.60
2023-05-15T08:10:05.859Z,14.65
2023-05-15T08:11:05.764Z,14.54
2023-05-15T08:12:05.745Z,14.50
2023-05-15T08:13:05.749Z,14.68
2023-05-15T08:14:05.951Z,14.55
2023-05-15T08:15:05.788Z,14.54
2023-05-15T08:16:05.780Z,14.54
2023-05-15T08:17:05.777Z,14.53
2023-05-15T08:18:05.764Z,14.47
2023-05-15T08:19:05.717Z,14.58
2023-05-15T08:20:05.765Z,14.51
2023-05-15T08:21:05.688Z,14.51
2023-05-15T08:22:05.913Z,14.54
2023-05-15T08:23:05.624Z,14.48
2023-05-15T08:24:05.630Z,14.58
2023-05-15T08:25:05.803Z,14.68
2023-05-15T08:26:05.805Z,14.72
2023-05-15T08:27:05.692Z,14.66
2023-05-15T08:28:05.686Z,14.78
2023-05-15T08:29:05.608Z,14.85
2023-05-15T08:30:05.669Z,14.86
2023-05-15T08:31:05.556Z,14.96
2023-05-15T08:32:05.541Z,15.04
2023-05-15T08:33:05.603Z,14.94
2023-05-15T08:34:05.498Z,14.97
2023-05-15T08:35:05.528Z,15.04
2023-05-15T08:36:05.582Z,15.02
2023-05-15T08:37:05.503Z,15.10
2023-05-15T08:38:05.570Z,15.17
2023-05-15T08:39:05.631Z,15.22
2023-05-15T08:40:05.440Z,15.29
2023-05-15T08:41:05.507Z,15.24
2023-05-15T08:42:05.464Z,15.39
2023-05-15T08:43:05.504Z,15.39
2023-05-15T08:44:05.415Z,15.49
2023-05-15T08:45:05.778Z,15.47
2023-05-15T08:46:05.382Z,15.59
2023-05-15T08:47:05.422Z,15.58
2023-05-15T08:48:05.416Z,15.58
2023-05-15T08:49:05.784Z,15.55
2023-05-15T08:50:05.428Z,15.58
2023-05-15T08:51:05.333Z,15.57
2023-05-15T08:52:05.318Z,15.57
2023-05-15T08:53:05.323Z,15.59
2023-05-15T08:54:05.386Z,15.55
2023-05-15T08:55:05.380Z,15.44
2023-05-15T08:56:05.299Z,15.54
2023-05-15T08:57:05.287Z,15.52
2023-05-15T08:58:05.251Z,15.65
2023-05-15T08:59:05.338Z,15.65
2023-05-15T09:00:06.490Z,15.72
2023-05-15T09:01:05.408Z,15.67
2023-05-15T09:02:05.527Z,15.75
2023-05-15T09:03:05.317Z,15.73
2023-05-15T09:04:05.335Z,15.73
2023-05-15T09:05:05.189Z,15.70
2023-05-15T09:06:05.241Z,15.80
2023-05-15T09:07:05.189Z,15.90
2023-05-15T09:08:05.505Z,15.88
2023-05-15T09:09:05.150Z,15.82
2023-05-15T09:10:05.269Z,15.88
2023-05-15T09:11:05.183Z,15.82
2023-05-15T09:12:05.163Z,15.94
2023-05-15T09:13:05.105Z,15.82
2023-05-15T09:14:05.130Z,15.77
2023-05-15T09:15:05.100Z,15.88
2023-05-15T09:16:05.146Z,15.77
2023-05-15T09:17:05.091Z,15.98
2023-05-15T09:18:05.209Z,16.04
2023-05-15T09:19:05.075Z,15.97
2023-05-15T09:20:05.213Z,16.05
2023-05-15T09:21:05.214Z,16.00
2023-05-15T09:22:05.004Z,16.10
2023-05-15T09:23:04.993Z,16.04
2023-05-15T09:24:04.988Z,16.15
2023-05-15T09:25:05.012Z,16.10
2023-05-15T09:26:05.226Z,16.21
2023-05-15T09:27:04.943Z,16.12
2023-05-15T09:28:05.020Z,16.20
2023-05-15T09:29:04.918Z,16.23
2023-05-15T09:30:04.955Z,16.17
2023-05-15T09:31:04.970Z,16.04
2023-05-15T09:32:05.058Z,16.04
2023-05-15T09:33:05.016Z,16.04
2023-05-15T09:34:04.892Z,16.05
2023-05-15T09:35:04.858Z,16.05
2023-05-15T09:36:04.919Z,16.20
2023-05-15T09:37:04.884Z,16.23
2023-05-15T09:38:04.856Z,16.32
2023-05-15T09:39:04.854Z,16.31
2023-05-15T09:40:04.801Z,16.26
2023-05-15T09:41:04.925Z,16.29
2023-05-15T09:42:04.824Z,16.46
2023-05-15T09:43:04.770Z,16.50
2023-05-15T09:44:04.780Z,16.61
2023-05-15T09:45:04.786Z,16.64
2023-05-15T09:46:04.926Z,16.58
2023-05-15T09:47:04.868Z,16.56
2023-05-15T09:48:04.920Z,16.46
2023-05-15T09:49:04.715Z,16.38
2023-05-15T09:50:04.715Z,16.50
2023-05-15T09:51:04.746Z,16.54
2023-05-15T09:52:04.745Z,16.38
2023-05-15T09:53:04.684Z,16.47
2023-05-15T09:54:04.654Z,16.49
2023-05-15T09:55:04.655Z,16.57
2023-05-15T09:56:04.728Z,16.60
2023-05-15T09:57:04.631Z,16.71
2023-05-15T09:58:04.657Z,16.81
2023-05-15T09:59:04.623Z,16.87
2023-05-15T10:00:04.623Z,17.02
2023-05-15T10:01:04.705Z,17.04
2023-05-15T10:02:04.660Z,17.04
2023-05-15T10:03:04.676Z,17.11
2023-05-15T10:04:04.557Z,17.23
2023-05-15T10:05:04.682Z,17.20
2023-05-15T10:06:04.809Z,17.20
2023-05-15T10:07:04.596Z,17.22
2023-05-15T10:08:04.524Z,17.29
2023-05-15T10:09:04.567Z,17.20
2023-05-15T10:10:04.504Z,17.24
2023-05-15T10:11:04.510Z,17.24
2023-05-15T10:12:04.527Z,17.22
2023-05-15T10:13:04.534Z,17.29
2023-05-15T10:14:04.480Z,17.26
2023-05-15T10:15:04.430Z,17.23
2023-05-15T10:16:04.486Z,17.22
2023-05-15T10:17:04.496Z,17.11
2023-05-15T10:18:04.708Z,17.23
2023-05-15T10:19:05.171Z,17.24
2023-05-15T10:20:04.409Z,17.22
2023-05-15T10:21:04.711Z,17.31
2023-05-15T10:22:04.460Z,17.31
2023-05-15T10:23:04.581Z,17.33
2023-05-15T10:24:04.332Z,17.29
2023-05-15T10:25:04.359Z,17.26
2023-05-15T10:26:04.348Z,17.27
2023-05-15T10:27:04.329Z,17.26
2023-05-15T10:28:04.546Z,17.33
2023-05-15T10:29:04.291Z,17.34
2023-05-15T10:30:04.581Z,17.33
2023-05-15T10:31:04.377Z,17.41
2023-05-15T10:32:04.261Z,17.57
2023-05-15T10:33:04.411Z,17.57
2023-05-15T10:34:04.259Z,17.60
2023-05-15T10:35:04.257Z,17.82
2023-05-15T10:36:04.236Z,17.85
2023-05-15T10:37:04.273Z,17.86
2023-05-15T10:38:04.228Z,17.90
2023-05-15T10:39:04.237Z,17.94
2023-05-15T10:40:04.239Z,17.87
2023-05-15T10:41:16.555Z,17.89
2023-05-15T10:42:05.171Z,17.95
2023-05-15T10:43:04.228Z,17.92
2023-05-15T10:44:04.150Z,17.92
2023-05-15T10:45:04.196Z,17.85
2023-05-15T10:46:04.137Z,17.85
2023-05-15T10:47:04.158Z,17.83
2023-05-15T10:48:04.159Z,17.80
2023-05-15T10:49:04.093Z,17.83
2023-05-15T10:50:04.143Z,17.80
2023-05-15T10:51:04.093Z,17.89
2023-05-15T10:52:04.079Z,17.87
2023-05-15T10:53:04.060Z,17.95
2023-05-15T10:54:04.059Z,17.97
2023-05-15T10:55:04.087Z,18.00
2023-05-15T10:56:04.095Z,17.98
2023-05-15T10:57:04.003Z,17.95
2023-05-15T10:58:03.981Z,17.89
2023-05-15T10:59:03.982Z,17.87
2023-05-15T11:00:04.004Z,17.95
2023-05-15T11:01:04.009Z,17.89
2023-05-15T11:02:04.040Z,17.90
2023-05-15T11:03:04.093Z,17.92
2023-05-15T11:04:03.967Z,17.86
2023-05-15T11:05:03.905Z,17.90
2023-05-15T11:06:03.927Z,17.95
2023-05-15T11:07:03.965Z,18.00
2023-05-15T11:08:03.874Z,18.00
2023-05-15T11:09:03.940Z,18.04
2023-05-15T11:10:04.988Z,18.07
2023-05-15T11:11:03.899Z,18.11
2023-05-15T11:12:03.913Z,18.18
2023-05-15T11:13:03.824Z,18.23
2023-05-15T11:14:03.802Z,18.28
2023-05-15T11:15:03.878Z,18.33
2023-05-15T11:16:03.804Z,18.29
2023-05-15T11:17:03.995Z,18.38
2023-05-15T11:18:03.929Z,18.31
2023-05-15T11:19:03.799Z,18.34
2023-05-15T11:20:03.792Z,18.29
2023-05-15T11:21:03.793Z,18.38
2023-05-15T11:22:03.741Z,18.43
2023-05-15T11:23:03.722Z,18.35
2023-05-15T11:24:03.705Z,18.35
2023-05-15T11:25:03.756Z,18.37
2023-05-15T11:26:03.821Z,18.40
2023-05-15T11:27:03.724Z,18.38
2023-05-15T11:28:03.661Z,18.37
2023-05-15T11:29:03.671Z,18.43
2023-05-15T11:30:03.720Z,18.49
2023-05-15T11:31:03.730Z,18.49
2023-05-15T11:32:03.631Z,18.55
2023-05-15T11:33:03.716Z,18.53
2023-05-15T11:34:03.618Z,18.70
2023-05-15T11:35:03.692Z,18.63
2023-05-15T11:36:03.576Z,18.65
2023-05-15T11:37:03.576Z,18.77
2023-05-15T11:38:03.566Z,18.73
2023-05-15T11:39:03.541Z,18.86
2023-05-15T11:40:03.601Z,18.88
2023-05-15T11:41:03.605Z,18.95
2023-05-15T11:42:03.581Z,19.07
2023-05-15T11:43:03.526Z,19.11
2023-05-15T11:44:03.510Z,19.11
2023-05-15T11:45:03.483Z,19.14
2023-05-15T11:46:03.604Z,19.12
2023-05-15T11:47:03.503Z,19.22
2023-05-15T11:48:03.611Z,19.31
2023-05-15T11:49:03.443Z,19.30
2023-05-15T11:50:03.447Z,19.27
2023-05-15T11:51:04.412Z,19.36
2023-05-15T11:52:03.408Z,19.33
2023-05-15T11:53:03.453Z,19.37
2023-05-15T11:54:03.377Z,19.27
2023-05-15T11:55:03.381Z,19.37
2023-05-15T11:56:03.443Z,19.31
2023-05-15T11:57:03.345Z,19.30
2023-05-15T11:58:03.338Z,19.30
2023-05-15T11:59:03.316Z,19.41
2023-05-15T12:00:03.325Z,19.41
2023-05-15T12:01:03.383Z,19.49
2023-05-15T12:02:03.289Z,19.48
2023-05-15T12:03:03.362Z,19.52
2023-05-15T12:04:03.458Z,19.59
2023-05-15T12:05:03.332Z,19.58
2023-05-15T12:06:03.343Z,19.64
2023-05-15T12:07:03.414Z,19.66
2023-05-15T12:08:03.291Z,19.71
2023-05-15T12:09:03.298Z,19.70
2023-05-15T12:10:03.235Z,19.67
2023-05-15T12:11:03.288Z,19.71
2023-05-15T12:12:03.196Z,19.71
2023-05-15T12:13:03.189Z,19.70
2023-05-15T12:14:03.169Z,19.70
2023-05-15T12:15:03.167Z,19.73
2023-05-15T12:16:03.642Z,19.81
2023-05-15T12:17:03.252Z,19.69
2023-05-15T12:18:03.169Z,19.70
2023-05-15T12:19:03.124Z,19.70
2023-05-15T12:20:03.169Z,19.84
2023-05-15T12:21:03.103Z,19.91
2023-05-15T12:22:03.177Z,20.00
2023-05-15T12:23:03.153Z,20.03
2023-05-15T12:24:08.046Z,20.09
2023-05-15T12:25:04.059Z,20.09
2023-05-15T12:26:03.063Z,20.13
2023-05-15T12:27:03.043Z,20.19
2023-05-15T12:28:03.211Z,20.10
2023-05-15T12:29:04.051Z,20.09
2023-05-15T12:30:03.096Z,20.03
2023-05-15T12:31:03.011Z,19.94
2023-05-15T12:32:03.019Z,19.99
2023-05-15T12:33:03.040Z,19.94
2023-05-15T12:34:02.986Z,19.91
2023-05-15T12:35:03.287Z,19.92
2023-05-15T12:36:02.951Z,19.92
2023-05-15T12:37:03.004Z,20.00
2023-05-15T12:38:02.939Z,19.99
2023-05-15T12:39:02.897Z,19.88
2023-05-15T12:40:02.922Z,19.88
2023-05-15T12:41:02.905Z,19.92
2023-05-15T12:42:02.945Z,19.82
2023-05-15T12:43:02.870Z,19.71
2023-05-15T12:44:02.864Z,19.82
2023-05-15T12:45:02.856Z,19.73
2023-05-15T12:46:02.905Z,19.77
2023-05-15T12:47:02.905Z,19.79
2023-05-15T12:48:02.851Z,19.66
2023-05-15T12:49:02.818Z,19.69
2023-05-15T12:50:02.815Z,19.73
2023-05-15T12:51:02.784Z,19.71
2023-05-15T12:52:02.773Z,19.81